createdAt,value
2023-01-17T00:01:55.067Z,7.80
2023-01-17T00:04:42.801Z,1.65
2023-01-17T00:07:32.781Z,2.40
2023-01-17T00:10:02.552Z,1.95
2023-01-17T00:12:33.584Z,1.58
2023-01-17T00:15:00.675Z,4.10
2023-01-17T00:17:30.429Z,2.45
2023-01-17T00:20:15.836Z,2.30
2023-01-17T00:23:02.638Z,2.15
2023-01-17T00:25:51.517Z,3.95
2023-01-17T00:28:18.346Z,3.90
2023-01-17T00:30:45.715Z,3.33
2023-01-17T00:33:12.720Z,5.15
2023-01-17T00:35:39.741Z,6.93
2023-01-17T00:38:14.636Z,1.50
2023-01-17T00:40:42.918Z,3.05
2023-01-17T00:43:32.090Z,6.72
2023-01-17T00:46:18.244Z,3.33
2023-01-17T00:49:03.705Z,8.68
2023-01-17T00:51:50.451Z,2.33
2023-01-17T00:54:36.287Z,1.60
2023-01-17T00:57:22.545Z,2.17
2023-01-17T01:00:07.794Z,5.57
2023-01-17T01:02:53.620Z,3.03
2023-01-17T01:05:41.110Z,1.30
2023-01-17T01:08:40.378Z,4.45
2023-01-17T01:11:27.739Z,5.82
2023-01-17T01:14:13.490Z,2.67
2023-01-17T01:16:58.753Z,9.15
2023-01-17T01:19:44.213Z,3.20
2023-01-17T01:22:29.285Z,6.82
2023-01-17T01:25:14.483Z,0.82
2023-01-17T01:27:59.351Z,3.47
2023-01-17T01:30:44.041Z,1.90
2023-01-17T01:33:21.242Z,1.83
2023-01-17T01:35:52.549Z,1.92
2023-01-17T01:38:20.840Z,4.85
2023-01-17T01:40:51.856Z,1.35
2023-01-17T01:43:39.300Z,1.80
2023-01-17T01:46:05.929Z,2.85
2023-01-17T01:48:40.445Z,3.67
2023-01-17T01:51:12.166Z,4.75
2023-01-17T01:53:42.934Z,7.78
2023-01-17T01:56:13.862Z,4.80
2023-01-17T01:58:44.754Z,3.40
2023-01-17T02:01:11.989Z,5.90
2023-01-17T02:03:43.920Z,9.10
2023-01-17T02:06:26.742Z,3.38
2023-01-17T02:08:53.676Z,1.25
2023-01-17T02:11:22.633Z,3.80
2023-01-17T02:13:49.068Z,8.95
2023-01-17T02:16:42.950Z,5.10
2023-01-17T02:19:18.509Z,5.97
2023-01-17T02:21:50.930Z,5.03
2023-01-17T02:27:07.427Z,2.85
2023-01-17T02:29:57.079Z,4.57
2023-01-17T02:32:48.097Z,9.18
2023-01-17T02:35:39.328Z,5.60
2023-01-17T02:38:14.331Z,3.60
2023-01-17T02:40:48.078Z,4.70
2023-01-17T02:43:19.815Z,2.38
2023-01-17T02:45:46.347Z,1.70
2023-01-17T02:48:19.211Z,3.08
2023-01-17T02:51:04.191Z,4.63
2023-01-17T02:53:52.457Z,7.90
2023-01-17T02:56:32.577Z,2.00
2023-01-17T02:58:59.133Z,4.07
2023-01-17T03:01:44.423Z,3.95
2023-01-17T03:04:21.058Z,4.15
2023-01-17T03:06:55.424Z,1.77
2023-01-17T03:09:22.546Z,1.65
2023-01-17T03:11:51.914Z,0.80
2023-01-17T03:14:18.756Z,0.85
2023-01-17T03:16:45.770Z,0.88
2023-01-17T03:19:16.124Z,0.80
2023-01-17T03:21:42.839Z,1.10
2023-01-17T03:24:09.320Z,1.67
2023-01-17T03:26:35.732Z,1.80
2023-01-17T03:29:02.324Z,0.80
2023-01-17T03:31:28.768Z,1.63
2023-01-17T03:33:55.161Z,0.98
2023-01-17T03:36:21.739Z,0.98
2023-01-17T03:38:50.700Z,0.60
2023-01-17T03:41:19.286Z,2.58
2023-01-17T03:43:47.951Z,0.60
2023-01-17T03:46:22.204Z,4.20
2023-01-17T03:48:49.377Z,1.55
2023-01-17T03:51:18.574Z,0.65
2023-01-17T03:53:47.007Z,1.38
2023-01-17T03:56:14.284Z,2.17
2023-01-17T03:58:40.809Z,16.42
2023-01-17T04:01:09.635Z,5.43
2023-01-17T04:03:36.138Z,3.50
2023-01-17T04:06:02.517Z,5.47
2023-01-17T04:08:31.560Z,9.43
2023-01-17T04:10:58.008Z,8.45
2023-01-17T04:13:24.384Z,10.63
2023-01-17T04:15:54.501Z,4.78
2023-01-17T04:18:23.039Z,8.10
2023-01-17T04:20:52.852Z,3.63
2023-01-17T04:23:19.385Z,4.65
2023-01-17T04:25:45.874Z,6.18
2023-01-17T04:28:12.539Z,3.40
2023-01-17T04:30:39.411Z,4.95
2023-01-17T04:33:05.879Z,5.43
2023-01-17T04:35:33.520Z,8.10
2023-01-17T04:38:00.307Z,2.85
2023-01-17T04:40:26.975Z,3.88
2023-01-17T04:42:57.522Z,4.57
2023-01-17T04:45:23.946Z,4.05
2023-01-17T04:47:52.637Z,9.10
2023-01-17T04:50:19.154Z,5.45
2023-01-17T04:52:45.713Z,4.72
2023-01-17T04:55:12.232Z,3.88
2023-01-17T04:57:38.658Z,6.32
2023-01-17T05:00:05.871Z,2.53
2023-01-17T05:02:32.528Z,4.43
2023-01-17T05:04:59.072Z,2.78
2023-01-17T05:07:25.751Z,4.70
2023-01-17T05:09:52.263Z,2.63
2023-01-17T05:12:18.780Z,2.20
2023-01-17T05:14:45.174Z,2.30
2023-01-17T05:17:11.552Z,3.05
2023-01-17T05:19:37.904Z,2.05
2023-01-17T05:22:14.913Z,2.80
2023-01-17T05:24:48.321Z,2.03
2023-01-17T05:27:18.145Z,2.42
2023-01-17T05:29:44.538Z,8.48
2023-01-17T05:32:11.122Z,3.10
2023-01-17T05:34:39.895Z,5.38
2023-01-17T05:37:06.305Z,3.95
2023-01-17T05:39:34.940Z,2.75
2023-01-17T05:42:03.827Z,3.55
2023-01-17T05:44:30.194Z,5.55
2023-01-17T05:47:01.346Z,3.00
2023-01-17T05:49:32.422Z,4.63
2023-01-17T05:51:58.953Z,5.15
2023-01-17T05:54:25.493Z,6.30
2023-01-17T05:56:52.152Z,4.57
2023-01-17T05:59:28.559Z,4.47
2023-01-17T06:02:02.640Z,3.20
2023-01-17T06:04:33.086Z,3.47
2023-01-17T06:06:59.572Z,3.53
2023-01-17T06:09:26.018Z,3.75
2023-01-17T06:11:52.642Z,3.15
2023-01-17T06:14:19.015Z,5.32
2023-01-17T06:16:47.667Z,5.82
2023-01-17T06:19:14.133Z,2.30
2023-01-17T06:21:40.530Z,3.10
2023-01-17T06:24:07.170Z,3.45
2023-01-17T06:26:35.851Z,3.65
2023-01-17T06:29:02.411Z,2.15
2023-01-17T06:31:28.918Z,3.85
2023-01-17T06:33:55.490Z,3.22
2023-01-17T06:36:24.243Z,2.13
2023-01-17T06:38:51.436Z,6.80
2023-01-17T06:41:20.167Z,7.80
2023-01-17T06:43:47.140Z,3.17
2023-01-17T06:46:13.923Z,1.02
2023-01-17T06:48:43.528Z,6.75
2023-01-17T06:51:10.334Z,4.05
2023-01-17T06:53:37.045Z,4.40
2023-01-17T06:56:05.938Z,2.95
2023-01-17T06:58:32.411Z,4.43
2023-01-17T07:00:59.195Z,5.38
2023-01-17T07:03:27.197Z,4.07
2023-01-17T07:05:56.080Z,7.13
2023-01-17T07:08:25.173Z,4.05
2023-01-17T07:10:51.613Z,10.35
2023-01-17T07:13:20.190Z,6.93
2023-01-17T07:15:49.781Z,5.63
2023-01-17T07:18:20.468Z,3.60
2023-01-17T07:20:46.909Z,6.80
2023-01-17T07:23:13.452Z,9.90
2023-01-17T07:25:39.871Z,4.63
2023-01-17T07:28:06.391Z,6.40
2023-01-17T07:30:33.007Z,4.97
2023-01-17T07:32:59.465Z,5.85
2023-01-17T07:35:28.688Z,5.78
2023-01-17T07:37:55.397Z,5.72
2023-01-17T07:40:22.624Z,8.75
2023-01-17T07:42:51.469Z,7.80
2023-01-17T07:45:21.826Z,4.68
2023-01-17T07:47:50.000Z,2.92
2023-01-17T07:50:19.645Z,8.43
2023-01-17T07:52:50.314Z,6.45
2023-01-17T07:55:16.867Z,9.15
2023-01-17T07:57:43.319Z,6.97
2023-01-17T08:00:10.534Z,10.75
2023-01-17T08:02:36.885Z,14.10
2023-01-17T08:05:03.445Z,7.75
2023-01-17T08:07:30.211Z,7.93
2023-01-17T08:09:56.625Z,6.40
2023-01-17T08:12:23.161Z,4.07
2023-01-17T08:15:07.602Z,5.03
2023-01-17T08:17:34.569Z,9.15
2023-01-17T08:20:01.036Z,5.85
2023-01-17T08:22:30.540Z,8.80
2023-01-17T08:24:59.673Z,8.02
2023-01-17T08:27:29.121Z,6.32
2023-01-17T08:30:00.648Z,5.80
2023-01-17T08:32:29.628Z,7.93
2023-01-17T08:34:57.199Z,6.03
2023-01-17T08:37:24.277Z,3.65
2023-01-17T08:39:50.832Z,9.25
2023-01-17T08:42:19.587Z,4.43
2023-01-17T08:44:46.082Z,3.60
2023-01-17T08:47:12.705Z,7.13
2023-01-17T08:49:41.653Z,7.93
2023-01-17T08:52:08.727Z,9.48
2023-01-17T08:54:35.430Z,4.82
2023-01-17T08:57:03.326Z,8.82
2023-01-17T08:59:30.133Z,11.43
2023-01-17T09:02:01.259Z,11.23
2023-01-17T09:04:27.836Z,13.07
2023-01-17T09:06:54.566Z,11.68
2023-01-17T09:09:21.024Z,6.72
2023-01-17T09:11:47.391Z,11.60
2023-01-17T09:14:14.271Z,12.30
2023-01-17T09:16:40.675Z,13.75
2023-01-17T09:19:07.110Z,25.38
2023-01-17T09:21:33.954Z,11.70
2023-01-17T09:24:00.331Z,10.70
2023-01-17T09:26:29.141Z,7.22
2023-01-17T09:28:55.984Z,10.55
2023-01-17T09:31:23.711Z,7.10
2023-01-17T09:33:51.381Z,9.45
2023-01-17T09:36:20.597Z,12.70
2023-01-17T09:38:47.007Z,8.85
2023-01-17T09:41:28.277Z,5.15
2023-01-17T09:43:54.680Z,7.00
2023-01-17T09:46:25.804Z,10.60
2023-01-17T09:49:03.002Z,12.38
2023-01-17T09:51:29.616Z,9.68
2023-01-17T09:53:56.257Z,5.15
2023-01-17T09:56:45.551Z,10.38
2023-01-17T09:59:33.126Z,8.45
2023-01-17T10:02:45.425Z,11.07
2023-01-17T10:05:36.439Z,9.40
2023-01-17T10:08:11.912Z,7.38
2023-01-17T10:11:08.847Z,7.22
2023-01-17T10:13:53.553Z,5.90
2023-01-17T10:17:16.198Z,6.28
2023-01-17T10:19:54.059Z,9.07
2023-01-17T10:22:39.301Z,5.20
2023-01-17T10:25:27.614Z,8.45
2023-01-17T10:27:58.293Z,7.65
2023-01-17T10:30:36.502Z,7.00
2023-01-17T10:33:12.660Z,8.00
2023-01-17T10:35:50.211Z,6.53
2023-01-17T10:38:18.372Z,3.85
2023-01-17T10:40:54.969Z,10.35
2023-01-17T10:43:47.496Z,6.47
2023-01-17T10:46:21.814Z,6.32
2023-01-17T10:48:51.886Z,3.45
2023-01-17T10:51:27.333Z,5.18
2023-01-17T10:54:07.986Z,12.30
2023-01-17T10:56:35.513Z,8.45
2023-01-17T10:59:26.639Z,5.82
2023-01-17T11:01:53.263Z,8.38
2023-01-17T11:04:35.133Z,5.13
2023-01-17T11:07:16.625Z,4.73
2023-01-17T11:09:45.984Z,3.25
2023-01-17T11:12:17.515Z,5.82
2023-01-17T11:14:58.745Z,5.13
2023-01-17T11:17:28.806Z,4.35
2023-01-17T11:20:27.094Z,3.90
2023-01-17T11:23:17.345Z,3.08
2023-01-17T11:25:57.854Z,3.75
2023-01-17T11:28:30.172Z,7.97
2023-01-17T11:31:00.042Z,4.38
2023-01-17T11:33:45.456Z,7.95
2023-01-17T11:36:31.663Z,14.02
2023-01-17T11:39:05.492Z,4.60
2023-01-17T11:41:34.821Z,4.25
2023-01-17T11:44:02.215Z,9.82
2023-01-17T11:46:32.307Z,13.25
2023-01-17T11:49:00.793Z,5.95
2023-01-17T11:51:29.482Z,5.03
2023-01-17T11:54:11.267Z,5.05
2023-01-17T11:56:37.979Z,7.77
2023-01-17T11:59:13.894Z,5.00
2023-01-17T12:02:03.117Z,2.33
2023-01-17T12:04:43.057Z,2.83
2023-01-17T12:07:27.020Z,2.92
2023-01-17T12:10:05.622Z,2.40
2023-01-17T12:12:50.675Z,7.35
2023-01-17T12:15:36.616Z,4.45
2023-01-17T12:18:17.886Z,11.45
2023-01-17T12:21:00.108Z,1.58
2023-01-17T12:23:47.911Z,3.42
2023-01-17T12:26:29.375Z,2.95
2023-01-17T12:29:20.432Z,1.75
2023-01-17T12:32:13.289Z,1.65
2023-01-17T12:37:23.609Z,4.35
2023-01-17T12:39:58.944Z,4.00
2023-01-17T12:42:34.440Z,1.75
2023-01-17T12:45:32.056Z,1.58
2023-01-17T12:48:04.308Z,2.70
2023-01-17T12:50:30.616Z,1.65
2023-01-17T12:53:05.887Z,8.23
2023-01-17T12:56:07.826Z,3.42
2023-01-17T12:58:40.900Z,3.00
2023-01-17T13:01:39.894Z,2.35
2023-01-17T13:04:27.984Z,3.60
2023-01-17T13:07:03.169Z,5.28
2023-01-17T13:09:51.281Z,1.60
2023-01-17T13:12:20.926Z,1.98
2023-01-17T13:14:47.590Z,1.15
2023-01-17T13:17:35.284Z,4.55
2023-01-17T13:20:28.833Z,3.13
2023-01-17T13:23:03.797Z,2.63
2023-01-17T13:25:58.341Z,1.95
2023-01-17T13:28:36.068Z,3.55
2023-01-17T13:31:34.977Z,7.03
2023-01-17T13:34:19.977Z,4.25
2023-01-17T13:37:10.161Z,1.33
2023-01-17T13:40:00.396Z,2.83
2023-01-17T13:42:40.846Z,1.63
2023-01-17T13:45:09.232Z,4.45
2023-01-17T13:47:40.563Z,2.22
2023-01-17T13:50:35.947Z,4.20
2023-01-17T13:53:27.601Z,0.65
2023-01-17T13:56:22.261Z,2.85
2023-01-17T13:58:50.306Z,1.55
2023-01-17T14:01:34.758Z,4.32
2023-01-17T14:04:05.719Z,3.92
2023-01-17T14:06:38.228Z,1.38
2023-01-17T14:12:03.786Z,3.40
2023-01-17T14:14:42.902Z,3.63
2023-01-17T14:17:12.474Z,3.40
2023-01-17T14:19:42.860Z,1.48
2023-01-17T14:22:18.474Z,4.28
2023-01-17T14:25:09.958Z,7.10
2023-01-17T14:27:49.387Z,4.05
2023-01-17T14:30:26.653Z,6.38
2023-01-17T14:32:59.798Z,2.33
2023-01-17T14:35:32.674Z,4.78
2023-01-17T14:38:05.679Z,3.00
2023-01-17T14:40:36.699Z,3.25
2023-01-17T14:43:10.265Z,1.65
2023-01-17T14:45:37.783Z,2.80
2023-01-17T14:48:16.046Z,1.38
2023-01-17T14:50:44.833Z,5.22
2023-01-17T14:53:13.383Z,3.17
2023-01-17T14:55:51.943Z,7.88
2023-01-17T14:58:39.296Z,2.47
2023-01-17T15:01:18.586Z,1.35
2023-01-17T15:03:46.803Z,2.90
2023-01-17T15:06:33.179Z,7.65
2023-01-17T15:09:03.275Z,2.92
2023-01-17T15:11:34.000Z,3.20
2023-01-17T15:14:05.750Z,1.80
2023-01-17T15:16:38.233Z,7.68
2023-01-17T15:19:14.937Z,2.33
2023-01-17T15:21:43.882Z,6.07
2023-01-17T15:24:19.823Z,4.03
2023-01-17T15:26:46.728Z,2.20
2023-01-17T15:29:23.880Z,4.15
2023-01-17T15:31:54.292Z,7.07
2023-01-17T15:34:28.545Z,3.55
2023-01-17T15:36:58.272Z,5.78
2023-01-17T15:39:30.422Z,6.55
2023-01-17T15:42:00.146Z,8.68
2023-01-17T15:44:46.730Z,1.88
2023-01-17T15:47:33.969Z,3.95
2023-01-17T15:50:02.484Z,1.60
2023-01-17T15:52:29.660Z,3.15
2023-01-17T15:55:11.593Z,6.97
2023-01-17T15:57:38.881Z,5.38
2023-01-17T16:00:37.841Z,5.72
2023-01-17T16:03:19.995Z,7.25
2023-01-17T16:05:47.552Z,7.90
2023-01-17T16:08:16.564Z,4.63
2023-01-17T16:10:44.201Z,3.47
2023-01-17T16:13:12.925Z,3.03
2023-01-17T16:15:41.438Z,5.72
2023-01-17T16:18:14.748Z,4.80
2023-01-17T16:20:58.588Z,3.63
2023-01-17T16:23:25.698Z,5.70
2023-01-17T16:25:54.002Z,8.93
2023-01-17T16:28:25.593Z,7.05
2023-01-17T16:30:54.039Z,8.07
2023-01-17T16:33:25.402Z,13.00
2023-01-17T16:35:53.786Z,16.15
2023-01-17T16:38:21.286Z,11.43
2023-01-17T16:40:48.544Z,10.20
2023-01-17T16:43:17.659Z,5.95
2023-01-17T16:45:50.338Z,4.88
2023-01-17T16:48:19.181Z,4.57
2023-01-17T16:50:50.374Z,8.80
2023-01-17T16:53:19.061Z,8.55
2023-01-17T16:55:49.808Z,9.15
2023-01-17T16:58:16.830Z,8.00
2023-01-17T17:00:46.575Z,6.32
2023-01-17T17:03:18.220Z,14.05
2023-01-17T17:05:54.377Z,7.53
2023-01-17T17:08:20.750Z,5.45
2023-01-17T17:10:47.178Z,5.10
2023-01-17T17:13:13.778Z,8.15
2023-01-17T17:15:44.650Z,7.32
2023-01-17T17:18:16.951Z,9.00
2023-01-17T17:20:44.017Z,9.30
2023-01-17T17:23:10.960Z,8.60
2023-01-17T17:25:38.312Z,9.88
2023-01-17T17:28:05.956Z,10.07
2023-01-17T17:30:33.316Z,5.90
2023-01-17T17:33:00.176Z,5.93
2023-01-17T17:35:29.056Z,8.85
2023-01-17T17:37:56.416Z,6.88
2023-01-17T17:40:24.176Z,11.82
2023-01-17T17:42:50.690Z,9.25
2023-01-17T17:45:17.157Z,7.18
2023-01-17T17:47:48.514Z,9.05
2023-01-17T17:50:15.316Z,5.68
2023-01-17T17:52:44.274Z,2.67
2023-01-17T17:55:13.254Z,5.88
2023-01-17T17:57:39.655Z,7.50
2023-01-17T18:00:09.528Z,14.38
2023-01-17T18:02:39.163Z,6.05
2023-01-17T18:05:06.105Z,9.68
2023-01-17T18:07:32.720Z,11.35
2023-01-17T18:09:59.400Z,6.55
2023-01-17T18:12:25.868Z,5.85
2023-01-17T18:14:52.315Z,8.77
2023-01-17T18:17:21.462Z,2.40
2023-01-17T18:19:47.865Z,4.22
2023-01-17T18:22:14.266Z,8.02
2023-01-17T18:24:40.709Z,8.43
2023-01-17T18:27:10.798Z,8.80
2023-01-17T18:29:39.823Z,7.28
2023-01-17T18:32:08.930Z,7.10
2023-01-17T18:34:36.011Z,14.93
2023-01-17T18:37:04.901Z,5.72
2023-01-17T18:39:31.499Z,11.52
2023-01-17T18:41:58.654Z,8.43
2023-01-17T18:44:27.328Z,10.73
2023-01-17T18:46:55.184Z,4.40
2023-01-17T18:49:21.643Z,8.32
2023-01-17T18:51:50.936Z,5.65
2023-01-17T18:54:19.184Z,4.38
2023-01-17T18:56:45.593Z,12.98
2023-01-17T18:59:13.445Z,7.82
2023-01-17T19:01:43.653Z,6.15
2023-01-17T19:04:15.550Z,3.78
2023-01-17T19:06:47.565Z,15.40
2023-01-17T19:09:15.670Z,11.57
2023-01-17T19:11:45.401Z,15.13
2023-01-17T19:14:12.759Z,12.90
2023-01-17T19:16:40.886Z,19.17
2023-01-17T19:19:10.384Z,8.70
2023-01-17T19:21:36.964Z,18.17
2023-01-17T19:24:03.573Z,11.95
2023-01-17T19:26:33.142Z,11.98
2023-01-17T19:29:00.283Z,10.40
2023-01-17T19:31:31.626Z,6.75
2023-01-17T19:33:59.308Z,11.50
2023-01-17T19:36:33.869Z,12.00
2023-01-17T19:39:05.543Z,11.07
2023-01-17T19:41:34.189Z,10.15
2023-01-17T19:44:03.143Z,13.98
2023-01-17T19:46:29.673Z,80.72
2023-01-17T19:48:57.141Z,97.05
2023-01-17T19:51:29.194Z,40.22
2023-01-17T19:53:56.520Z,14.35
2023-01-17T19:56:25.313Z,18.13
2023-01-17T19:58:52.424Z,11.27
2023-01-17T20:01:22.114Z,20.02
2023-01-17T20:03:51.235Z,19.55
2023-01-17T20:06:20.867Z,22.83
2023-01-17T20:08:47.308Z,46.22
2023-01-17T20:11:18.427Z,11.23
2023-01-17T20:13:45.818Z,17.50
2023-01-17T20:16:14.421Z,13.20
2023-01-17T20:18:43.789Z,14.38
2023-01-17T20:21:17.158Z,10.48
2023-01-17T20:23:46.831Z,6.13
2023-01-17T20:26:15.418Z,3.65
2023-01-17T20:28:43.806Z,6.68
2023-01-17T20:31:21.920Z,9.95
2023-01-17T20:33:52.196Z,8.27
2023-01-17T20:36:20.701Z,4.40
2023-01-17T20:38:48.711Z,3.50
2023-01-17T20:41:22.290Z,6.55
2023-01-17T20:43:51.616Z,12.45
2023-01-17T20:46:19.898Z,8.70
2023-01-17T20:48:54.605Z,4.22
2023-01-17T20:51:23.749Z,4.47
2023-01-17T20:53:59.291Z,8.50
2023-01-17T20:56:26.760Z,6.95
2023-01-17T20:58:54.564Z,3.88
2023-01-17T21:01:21.959Z,5.72
2023-01-17T21:03:51.603Z,3.30
2023-01-17T21:06:19.557Z,7.50
2023-01-17T21:08:46.807Z,9.40
2023-01-17T21:11:15.757Z,6.03
2023-01-17T21:13:48.596Z,4.75
2023-01-17T21:16:20.280Z,6.90
2023-01-17T21:18:51.619Z,5.30
2023-01-17T21:21:23.424Z,6.85
2023-01-17T21:23:51.581Z,9.90
2023-01-17T21:26:19.394Z,14.98
2023-01-17T21:28:47.280Z,6.57
2023-01-17T21:31:25.262Z,3.25
2023-01-17T21:33:58.107Z,8.48
2023-01-17T21:36:30.575Z,9.30
2023-01-17T21:41:28.414Z,11.30
2023-01-17T21:43:56.905Z,9.85
2023-01-17T21:46:23.904Z,4.47
2023-01-17T21:48:52.981Z,9.38
2023-01-17T21:51:19.877Z,9.82
2023-01-17T21:53:46.298Z,5.75
2023-01-17T21:56:33.095Z,9.38
2023-01-17T21:58:59.760Z,2.33
2023-01-17T22:01:32.154Z,8.48
2023-01-17T22:06:32.647Z,10.60
2023-01-17T22:08:59.199Z,10.10
2023-01-17T22:11:27.626Z,5.15
2023-01-17T22:13:58.873Z,5.53
2023-01-17T22:16:25.989Z,4.40
2023-01-17T22:18:52.906Z,5.60
2023-01-17T22:21:28.225Z,4.65
2023-01-17T22:24:01.868Z,3.00
2023-01-17T22:26:30.412Z,4.22
2023-01-17T22:29:04.611Z,4.22
2023-01-17T22:31:31.418Z,5.68
2023-01-17T22:34:03.295Z,9.65
2023-01-17T22:36:32.567Z,6.03
2023-01-17T22:38:59.283Z,3.67
2023-01-17T22:41:35.045Z,5.38
2023-01-17T22:44:02.359Z,7.53
2023-01-17T22:46:31.688Z,4.60
2023-01-17T22:48:59.086Z,10.30
2023-01-17T22:51:27.894Z,9.25
2023-01-17T22:53:57.037Z,8.80
2023-01-17T22:56:29.754Z,3.83
2023-01-17T22:58:57.467Z,10.55
2023-01-17T23:01:29.924Z,16.58
2023-01-17T23:06:30.364Z,11.00
2023-01-17T23:09:02.704Z,8.70
2023-01-17T23:11:38.984Z,13.98
2023-01-17T23:14:11.316Z,8.50
2023-01-17T23:17:03.196Z,9.57
2023-01-17T23:19:38.955Z,10.43
2023-01-17T23:22:19.200Z,6.35
2023-01-17T23:24:56.973Z,7.82
2023-01-17T23:27:42.163Z,5.22
2023-01-17T23:30:11.880Z,8.18
2023-01-17T23:32:46.520Z,7.40
2023-01-17T23:35:14.070Z,4.93
2023-01-17T23:37:59.159Z,4.53
2023-01-17T23:40:25.644Z,10.48
2023-01-17T23:43:10.743Z,5.15
2023-01-17T23:45:38.823Z,5.85
2023-01-17T23:48:09.618Z,5.80
2023-01-17T23:50:44.733Z,2.65
2023-01-17T23:53:16.013Z,3.30
2023-01-17T23:55:43.642Z,2.30
2023-01-17T23:58:11.915Z,2.88
